sensor_id;sensor_type;location;lat;lon;timestamp;P1;durP1;ratioP1;P2;durP2;ratioP2
25984;SDS011;66753;53.848;10.658;2023-02-28T00:02:57;8.25;;;4.18;;
25984;SDS011;66753;53.848;10.658;2023-02-28T00:07:58;9.95;;;3.97;;
25984;SDS011;66753;53.848;10.658;2023-02-28T00:13:00;9.02;;;4.40;;
25984;SDS011;66753;53.848;10.658;2023-02-28T00:18:05;7.82;;;3.80;;
25984;SDS011;66753;53.848;10.658;2023-02-28T00:23:06;7.33;;;4.00;;
25984;SDS011;66753;53.848;10.658;2023-02-28T00:28:06;8.70;;;4.27;;
25984;SDS011;66753;53.848;10.658;2023-02-28T00:33:07;7.27;;;3.90;;
25984;SDS011;66753;53.848;10.658;2023-02-28T00:38:07;7.80;;;3.60;;
25984;SDS011;66753;53.848;10.658;2023-02-28T00:43:07;8.57;;;3.87;;
25984;SDS011;66753;53.848;10.658;2023-02-28T00:48:08;7.72;;;3.60;;
25984;SDS011;66753;53.848;10.658;2023-02-28T00:53:08;10.00;;;3.63;;
25984;SDS011;66753;53.848;10.658;2023-02-28T00:58:09;10.03;;;3.70;;
25984;SDS011;66753;53.848;10.658;2023-02-28T01:03:09;4.63;;;3.00;;
25984;SDS011;66753;53.848;10.658;2023-02-28T01:08:11;7.63;;;3.03;;
25984;SDS011;66753;53.848;10.658;2023-02-28T01:13:12;6.57;;;3.10;;
25984;SDS011;66753;53.848;10.658;2023-02-28T01:18:13;6.30;;;2.88;;
25984;SDS011;66753;53.848;10.658;2023-02-28T01:23:13;6.07;;;3.20;;
25984;SDS011;66753;53.848;10.658;2023-02-28T01:28:14;7.73;;;3.07;;
25984;SDS011;66753;53.848;10.658;2023-02-28T01:33:14;8.05;;;3.17;;
25984;SDS011;66753;53.848;10.658;2023-02-28T01:38:15;7.43;;;3.23;;
25984;SDS011;66753;53.848;10.658;2023-02-28T01:43:19;8.77;;;3.58;;
25984;SDS011;66753;53.848;10.658;2023-02-28T01:48:25;5.85;;;3.20;;
25984;SDS011;66753;53.848;10.658;2023-02-28T01:53:39;5.10;;;2.85;;
25984;SDS011;66753;53.848;10.658;2023-02-28T01:58:44;8.68;;;3.05;;
25984;SDS011;66753;53.848;10.658;2023-02-28T02:03:44;6.57;;;3.15;;
25984;SDS011;66753;53.848;10.658;2023-02-28T02:08:45;5.23;;;3.10;;
25984;SDS011;66753;53.848;10.658;2023-02-28T02:13:50;5.60;;;3.00;;
25984;SDS011;66753;53.848;10.658;2023-02-28T02:19:22;7.78;;;3.10;;
25984;SDS011;66753;53.848;10.658;2023-02-28T02:41:08;4.95;;;2.20;;
25984;SDS011;66753;53.848;10.658;2023-02-28T02:46:19;6.30;;;2.08;;
25984;SDS011;66753;53.848;10.658;2023-02-28T02:51:30;5.03;;;1.90;;
25984;SDS011;66753;53.848;10.658;2023-02-28T02:56:33;5.10;;;2.40;;
25984;SDS011;66753;53.848;10.658;2023-02-28T03:01:35;4.38;;;2.15;;
25984;SDS011;66753;53.848;10.658;2023-02-28T03:06:37;4.80;;;2.08;;
25984;SDS011;66753;53.848;10.658;2023-02-28T03:11:38;6.43;;;2.33;;
25984;SDS011;66753;53.848;10.658;2023-02-28T03:17:16;5.35;;;2.40;;
25984;SDS011;66753;53.848;10.658;2023-02-28T03:37:44;7.75;;;2.60;;
25984;SDS011;66753;53.848;10.658;2023-02-28T03:42:46;6.38;;;2.65;;
25984;SDS011;66753;53.848;10.658;2023-02-28T03:47:53;5.32;;;3.03;;
25984;SDS011;66753;53.848;10.658;2023-02-28T03:58:15;6.30;;;2.60;;
25984;SDS011;66753;53.848;10.658;2023-02-28T04:03:21;5.28;;;2.10;;
25984;SDS011;66753;53.848;10.658;2023-02-28T04:08:23;5.47;;;2.47;;
25984;SDS011;66753;53.848;10.658;2023-02-28T04:13:23;7.30;;;2.87;;
25984;SDS011;66753;53.848;10.658;2023-02-28T04:18:24;6.13;;;2.77;;
25984;SDS011;66753;53.848;10.658;2023-02-28T04:23:24;5.13;;;2.47;;
25984;SDS011;66753;53.848;10.658;2023-02-28T04:28:25;4.73;;;2.10;;
25984;SDS011;66753;53.848;10.658;2023-02-28T04:33:25;6.43;;;2.50;;
25984;SDS011;66753;53.848;10.658;2023-02-28T04:38:26;7.13;;;2.50;;
25984;SDS011;66753;53.848;10.658;2023-02-28T04:43:27;5.73;;;2.70;;
25984;SDS011;66753;53.848;10.658;2023-02-28T04:48:28;4.97;;;2.72;;
25984;SDS011;66753;53.848;10.658;2023-02-28T04:53:30;6.97;;;2.42;;
25984;SDS011;66753;53.848;10.658;2023-02-28T04:58:31;6.00;;;2.45;;
25984;SDS011;66753;53.848;10.658;2023-02-28T05:03:32;5.10;;;2.15;;
25984;SDS011;66753;53.848;10.658;2023-02-28T05:08:33;5.73;;;2.57;;
25984;SDS011;66753;53.848;10.658;2023-02-28T05:13:33;7.25;;;2.67;;
25984;SDS011;66753;53.848;10.658;2023-02-28T05:18:36;5.03;;;2.50;;
25984;SDS011;66753;53.848;10.658;2023-02-28T05:23:36;5.10;;;2.55;;
25984;SDS011;66753;53.848;10.658;2023-02-28T05:28:37;5.73;;;3.17;;
25984;SDS011;66753;53.848;10.658;2023-02-28T05:33:37;4.57;;;2.47;;
25984;SDS011;66753;53.848;10.658;2023-02-28T05:38:38;6.82;;;2.75;;
25984;SDS011;66753;53.848;10.658;2023-02-28T05:43:38;5.90;;;2.57;;
25984;SDS011;66753;53.848;10.658;2023-02-28T05:48:40;6.93;;;2.93;;
25984;SDS011;66753;53.848;10.658;2023-02-28T05:53:43;7.13;;;2.90;;
25984;SDS011;66753;53.848;10.658;2023-02-28T05:58:43;5.82;;;2.70;;
25984;SDS011;66753;53.848;10.658;2023-02-28T06:03:44;8.27;;;3.35;;
25984;SDS011;66753;53.848;10.658;2023-02-28T06:08:44;6.23;;;2.37;;
25984;SDS011;66753;53.848;10.658;2023-02-28T06:13:45;7.22;;;3.22;;
25984;SDS011;66753;53.848;10.658;2023-02-28T06:18:46;6.32;;;2.55;;
25984;SDS011;66753;53.848;10.658;2023-02-28T06:23:47;5.93;;;3.43;;
25984;SDS011;66753;53.848;10.658;2023-02-28T06:28:47;5.07;;;2.83;;
25984;SDS011;66753;53.848;10.658;2023-02-28T06:33:48;6.57;;;2.53;;
25984;SDS011;66753;53.848;10.658;2023-02-28T06:38:49;5.75;;;3.20;;
25984;SDS011;66753;53.848;10.658;2023-02-28T06:43:54;4.28;;;2.40;;
25984;SDS011;66753;53.848;10.658;2023-02-28T06:48:55;6.75;;;2.58;;
25984;SDS011;66753;53.848;10.658;2023-02-28T06:53:55;5.80;;;3.27;;
25984;SDS011;66753;53.848;10.658;2023-02-28T06:58:56;7.22;;;3.03;;
25984;SDS011;66753;53.848;10.658;2023-02-28T07:03:57;5.97;;;2.63;;
25984;SDS011;66753;53.848;10.658;2023-02-28T07:08:58;6.47;;;2.45;;
25984;SDS011;66753;53.848;10.658;2023-02-28T07:13:58;6.60;;;2.80;;
25984;SDS011;66753;53.848;10.658;2023-02-28T07:18:59;6.77;;;2.83;;
25984;SDS011;66753;53.848;10.658;2023-02-28T07:23:59;5.70;;;2.83;;
25984;SDS011;66753;53.848;10.658;2023-02-28T07:29:00;4.23;;;2.40;;
25984;SDS011;66753;53.848;10.658;2023-02-28T07:34:00;5.30;;;2.20;;
25984;SDS011;66753;53.848;10.658;2023-02-28T07:39:00;4.50;;;2.13;;
25984;SDS011;66753;53.848;10.658;2023-02-28T07:44:01;5.23;;;3.00;;
25984;SDS011;66753;53.848;10.658;2023-02-28T07:49:03;5.88;;;2.50;;
25984;SDS011;66753;53.848;10.658;2023-02-28T07:54:04;4.20;;;2.05;;
25984;SDS011;66753;53.848;10.658;2023-02-28T07:59:05;4.68;;;2.20;;
25984;SDS011;66753;53.848;10.658;2023-02-28T08:04:05;4.30;;;2.13;;
25984;SDS011;66753;53.848;10.658;2023-02-28T08:09:06;4.23;;;2.00;;
25984;SDS011;66753;53.848;10.658;2023-02-28T08:14:06;6.27;;;2.27;;
25984;SDS011;66753;53.848;10.658;2023-02-28T08:19:07;6.57;;;2.47;;
25984;SDS011;66753;53.848;10.658;2023-02-28T08:24:07;5.53;;;2.53;;
25984;SDS011;66753;53.848;10.658;2023-02-28T08:29:07;6.95;;;2.35;;
25984;SDS011;66753;53.848;10.658;2023-02-28T08:34:09;4.47;;;1.97;;
25984;SDS011;66753;53.848;10.658;2023-02-28T08:39:11;5.10;;;2.13;;
25984;SDS011;66753;53.848;10.658;2023-02-28T08:44:12;4.57;;;1.85;;
25984;SDS011;66753;53.848;10.658;2023-02-28T08:49:12;3.65;;;2.13;;
25984;SDS011;66753;53.848;10.658;2023-02-28T08:54:13;6.60;;;2.33;;
25984;SDS011;66753;53.848;10.658;2023-02-28T08:59:16;5.70;;;2.42;;
25984;SDS011;66753;53.848;10.658;2023-02-28T09:04:16;7.30;;;2.73;;
25984;SDS011;66753;53.848;10.658;2023-02-28T09:09:16;5.27;;;2.43;;
25984;SDS011;66753;53.848;10.658;2023-02-28T09:14:17;6.57;;;3.10;;
25984;SDS011;66753;53.848;10.658;2023-02-28T09:19:17;5.27;;;2.77;;
25984;SDS011;66753;53.848;10.658;2023-02-28T09:24:18;4.78;;;2.33;;
25984;SDS011;66753;53.848;10.658;2023-02-28T09:29:19;6.18;;;2.60;;
25984;SDS011;66753;53.848;10.658;2023-02-28T09:34:20;6.67;;;2.80;;
25984;SDS011;66753;53.848;10.658;2023-02-28T09:39:21;5.03;;;2.63;;
25984;SDS011;66753;53.848;10.658;2023-02-28T09:44:25;5.50;;;2.65;;
25984;SDS011;66753;53.848;10.658;2023-02-28T09:49:39;5.55;;;2.53;;
25984;SDS011;66753;53.848;10.658;2023-02-28T09:54:42;6.45;;;2.53;;
25984;SDS011;66753;53.848;10.658;2023-02-28T10:10:20;4.90;;;1.77;;
25984;SDS011;66753;53.848;10.658;2023-02-28T10:15:25;3.58;;;1.70;;
25984;SDS011;66753;53.848;10.658;2023-02-28T10:20:32;4.65;;;1.33;;
25984;SDS011;66753;53.848;10.658;2023-02-28T10:25:36;3.85;;;1.35;;
25984;SDS011;66753;53.848;10.658;2023-02-28T10:30:39;3.35;;;1.10;;
25984;SDS011;66753;53.848;10.658;2023-02-28T10:35:42;4.03;;;1.25;;
25984;SDS011;66753;53.848;10.658;2023-02-28T10:40:43;3.60;;;1.33;;
25984;SDS011;66753;53.848;10.658;2023-02-28T10:50:55;3.10;;;1.33;;
25984;SDS011;66753;53.848;10.658;2023-02-28T10:55:59;2.72;;;1.02;;
25984;SDS011;66753;53.848;10.658;2023-02-28T11:01:00;3.28;;;1.08;;
25984;SDS011;66753;53.848;10.658;2023-02-28T11:06:05;5.10;;;1.30;;
25984;SDS011;66753;53.848;10.658;2023-02-28T11:11:08;4.25;;;1.17;;
25984;SDS011;66753;53.848;10.658;2023-02-28T11:16:09;3.10;;;1.40;;
25984;SDS011;66753;53.848;10.658;2023-02-28T11:21:15;4.40;;;1.23;;
25984;SDS011;66753;53.848;10.658;2023-02-28T11:26:39;4.03;;;1.23;;
25984;SDS011;66753;53.848;10.658;2023-02-28T11:31:42;3.55;;;1.33;;
25984;SDS011;66753;53.848;10.658;2023-02-28T11:36:43;2.83;;;0.93;;
25984;SDS011;66753;53.848;10.658;2023-02-28T11:58:16;3.78;;;1.15;;
25984;SDS011;66753;53.848;10.658;2023-02-28T12:24:14;4.10;;;1.20;;
25984;SDS011;66753;53.848;10.658;2023-02-28T12:29:43;3.92;;;1.15;;
25984;SDS011;66753;53.848;10.658;2023-02-28T12:34:49;4.70;;;1.50;;
25984;SDS011;66753;53.848;10.658;2023-02-28T12:39:56;3.95;;;1.30;;
25984;SDS011;66753;53.848;10.658;2023-02-28T12:45:08;4.57;;;1.30;;
25984;SDS011;66753;53.848;10.658;2023-02-28T12:50:13;2.65;;;1.08;;
25984;SDS011;66753;53.848;10.658;2023-02-28T12:55:17;3.75;;;1.10;;
25984;SDS011;66753;53.848;10.658;2023-02-28T13:00:25;3.13;;;1.20;;
25984;SDS011;66753;53.848;10.658;2023-02-28T13:11:23;3.90;;;1.50;;
25984;SDS011;66753;53.848;10.658;2023-02-28T13:16:25;3.50;;;1.17;;
25984;SDS011;66753;53.848;10.658;2023-02-28T13:21:27;2.33;;;1.10;;
25984;SDS011;66753;53.848;10.658;2023-02-28T13:32:18;3.08;;;0.90;;
25984;SDS011;66753;53.848;10.658;2023-02-28T13:47:53;3.55;;;1.30;;
25984;SDS011;66753;53.848;10.658;2023-02-28T13:53:01;2.78;;;1.10;;
25984;SDS011;66753;53.848;10.658;2023-02-28T14:08:26;3.10;;;1.30;;
25984;SDS011;66753;53.848;10.658;2023-02-28T14:18:49;4.88;;;1.63;;
25984;SDS011;66753;53.848;10.658;2023-02-28T14:40:04;3.53;;;1.48;;
25984;SDS011;66753;53.848;10.658;2023-02-28T14:45:21;4.22;;;1.33;;
25984;SDS011;66753;53.848;10.658;2023-02-28T14:50:24;3.88;;;0.98;;
25984;SDS011;66753;53.848;10.658;2023-02-28T14:55:31;2.38;;;1.10;;
25984;SDS011;66753;53.848;10.658;2023-02-28T15:00:34;2.65;;;1.10;;
25984;SDS011;66753;53.848;10.658;2023-02-28T15:05:37;2.78;;;0.88;;
25984;SDS011;66753;53.848;10.658;2023-02-28T15:10:38;3.07;;;0.90;;
25984;SDS011;66753;53.848;10.658;2023-02-28T15:20:42;3.58;;;1.10;;
25984;SDS011;66753;53.848;10.658;2023-02-28T15:25:44;3.33;;;0.90;;
25984;SDS011;66753;53.848;10.658;2023-02-28T15:30:52;2.75;;;1.00;;
25984;SDS011;66753;53.848;10.658;2023-02-28T15:41:29;3.50;;;1.30;;
25984;SDS011;66753;53.848;10.658;2023-02-28T15:46:31;1.95;;;0.90;;
25984;SDS011;66753;53.848;10.658;2023-02-28T15:51:33;3.70;;;1.07;;
25984;SDS011;66753;53.848;10.658;2023-02-28T15:56:46;2.60;;;1.13;;
25984;SDS011;66753;53.848;10.658;2023-02-28T16:02:13;3.45;;;1.27;;
25984;SDS011;66753;53.848;10.658;2023-02-28T16:07:12;4.05;;;1.40;;
25984;SDS011;66753;53.848;10.658;2023-02-28T16:12:12;2.85;;;1.60;;
25984;SDS011;66753;53.848;10.658;2023-02-28T16:17:33;4.70;;;1.55;;
25984;SDS011;66753;53.848;10.658;2023-02-28T16:22:35;4.65;;;1.60;;
25984;SDS011;66753;53.848;10.658;2023-02-28T16:27:36;3.63;;;1.47;;
25984;SDS011;66753;53.848;10.658;2023-02-28T16:32:37;4.43;;;1.30;;
25984;SDS011;66753;53.848;10.658;2023-02-28T16:37:38;3.00;;;1.40;;
25984;SDS011;66753;53.848;10.658;2023-02-28T16:42:39;4.53;;;1.40;;
25984;SDS011;66753;53.848;10.658;2023-02-28T16:47:40;3.65;;;1.20;;
25984;SDS011;66753;53.848;10.658;2023-02-28T16:52:41;2.77;;;1.30;;
25984;SDS011;66753;53.848;10.658;2023-02-28T16:57:41;5.27;;;1.33;;
25984;SDS011;66753;53.848;10.658;2023-02-28T17:02:43;3.28;;;1.15;;
25984;SDS011;66753;53.848;10.658;2023-02-28T17:07:44;3.80;;;1.10;;
25984;SDS011;66753;53.848;10.658;2023-02-28T17:12:46;3.47;;;1.40;;
25984;SDS011;66753;53.848;10.658;2023-02-28T17:17:47;4.88;;;1.90;;
25984;SDS011;66753;53.848;10.658;2023-02-28T17:22:52;3.58;;;1.60;;
25984;SDS011;66753;53.848;10.658;2023-02-28T17:27:53;3.63;;;1.55;;
25984;SDS011;66753;53.848;10.658;2023-02-28T17:32:55;4.35;;;1.70;;
25984;SDS011;66753;53.848;10.658;2023-02-28T17:37:56;3.60;;;1.40;;
25984;SDS011;66753;53.848;10.658;2023-02-28T17:42:56;2.57;;;1.30;;
25984;SDS011;66753;53.848;10.658;2023-02-28T17:47:56;5.75;;;1.65;;
25984;SDS011;66753;53.848;10.658;2023-02-28T17:52:57;4.50;;;1.40;;
25984;SDS011;66753;53.848;10.658;2023-02-28T17:57:58;4.93;;;1.35;;
25984;SDS011;66753;53.848;10.658;2023-02-28T18:02:59;4.50;;;1.43;;
25984;SDS011;66753;53.848;10.658;2023-02-28T18:08:00;4.50;;;1.70;;
25984;SDS011;66753;53.848;10.658;2023-02-28T18:13:01;5.68;;;2.00;;
25984;SDS011;66753;53.848;10.658;2023-02-28T18:18:03;6.18;;;2.33;;
25984;SDS011;66753;53.848;10.658;2023-02-28T18:23:06;4.90;;;1.65;;
25984;SDS011;66753;53.848;10.658;2023-02-28T18:28:07;5.15;;;2.15;;
25984;SDS011;66753;53.848;10.658;2023-02-28T18:33:07;4.47;;;2.03;;
25984;SDS011;66753;53.848;10.658;2023-02-28T18:38:15;5.33;;;2.77;;
25984;SDS011;66753;53.848;10.658;2023-02-28T18:43:18;6.63;;;2.60;;
25984;SDS011;66753;53.848;10.658;2023-02-28T18:48:19;4.83;;;2.70;;
25984;SDS011;66753;53.848;10.658;2023-02-28T18:53:22;6.88;;;2.65;;
25984;SDS011;66753;53.848;10.658;2023-02-28T18:58:22;5.22;;;2.10;;
25984;SDS011;66753;53.848;10.658;2023-02-28T19:03:23;6.95;;;2.25;;
25984;SDS011;66753;53.848;10.658;2023-02-28T19:08:24;4.53;;;2.22;;
25984;SDS011;66753;53.848;10.658;2023-02-28T19:13:25;7.05;;;3.00;;
25984;SDS011;66753;53.848;10.658;2023-02-28T19:18:25;7.88;;;4.20;;
25984;SDS011;66753;53.848;10.658;2023-02-28T19:23:26;6.03;;;2.53;;
25984;SDS011;66753;53.848;10.658;2023-02-28T19:28:28;6.00;;;3.22;;
25984;SDS011;66753;53.848;10.658;2023-02-28T19:33:29;4.70;;;2.65;;
25984;SDS011;66753;53.848;10.658;2023-02-28T19:38:30;5.35;;;2.42;;
25984;SDS011;66753;53.848;10.658;2023-02-28T19:43:30;5.53;;;2.30;;
25984;SDS011;66753;53.848;10.658;2023-02-28T19:48:31;5.72;;;2.67;;
25984;SDS011;66753;53.848;10.658;2023-02-28T19:53:32;5.97;;;3.25;;
25984;SDS011;66753;53.848;10.658;2023-02-28T19:58:34;6.82;;;3.08;;
25984;SDS011;66753;53.848;10.658;2023-02-28T20:03:35;4.80;;;2.42;;
25984;SDS011;66753;53.848;10.658;2023-02-28T20:08:36;6.27;;;2.90;;
25984;SDS011;66753;53.848;10.658;2023-02-28T20:13:37;5.30;;;2.60;;
25984;SDS011;66753;53.848;10.658;2023-02-28T20:18:38;5.22;;;2.55;;
25984;SDS011;66753;53.848;10.658;2023-02-28T20:23:39;8.68;;;4.10;;
25984;SDS011;66753;53.848;10.658;2023-02-28T20:28:40;6.40;;;4.38;;
25984;SDS011;66753;53.848;10.658;2023-02-28T20:33:42;8.02;;;3.40;;
25984;SDS011;66753;53.848;10.658;2023-02-28T20:38:43;6.75;;;3.83;;
25984;SDS011;66753;53.848;10.658;2023-02-28T20:43:43;8.93;;;3.50;;
25984;SDS011;66753;53.848;10.658;2023-02-28T20:48:44;5.22;;;2.65;;
25984;SDS011;66753;53.848;10.658;2023-02-28T20:53:45;6.73;;;2.80;;
25984;SDS011;66753;53.848;10.658;2023-02-28T20:58:46;10.43;;;3.73;;
25984;SDS011;66753;53.848;10.658;2023-02-28T21:03:48;8.13;;;3.85;;
25984;SDS011;66753;53.848;10.658;2023-02-28T21:13:51;6.50;;;2.93;;
25984;SDS011;66753;53.848;10.658;2023-02-28T21:18:53;6.47;;;2.95;;
25984;SDS011;66753;53.848;10.658;2023-02-28T21:23:54;7.75;;;4.30;;
25984;SDS011;66753;53.848;10.658;2023-02-28T21:28:56;9.70;;;5.33;;
25984;SDS011;66753;53.848;10.658;2023-02-28T21:33:58;8.45;;;3.03;;
25984;SDS011;66753;53.848;10.658;2023-02-28T21:39:01;7.93;;;3.17;;
25984;SDS011;66753;53.848;10.658;2023-02-28T21:44:04;5.00;;;2.50;;
25984;SDS011;66753;53.848;10.658;2023-02-28T21:49:05;5.55;;;2.33;;
25984;SDS011;66753;53.848;10.658;2023-02-28T21:54:05;5.10;;;2.50;;
25984;SDS011;66753;53.848;10.658;2023-02-28T21:59:06;6.30;;;2.30;;
25984;SDS011;66753;53.848;10.658;2023-02-28T22:04:09;5.85;;;2.75;;
25984;SDS011;66753;53.848;10.658;2023-02-28T22:09:20;5.88;;;3.30;;
25984;SDS011;66753;53.848;10.658;2023-02-28T22:14:20;5.47;;;3.13;;
25984;SDS011;66753;53.848;10.658;2023-02-28T22:19:21;6.70;;;3.28;;
25984;SDS011;66753;53.848;10.658;2023-02-28T22:24:22;5.78;;;3.13;;
25984;SDS011;66753;53.848;10.658;2023-02-28T22:29:23;6.65;;;2.95;;
25984;SDS011;66753;53.848;10.658;2023-02-28T22:34:24;4.80;;;2.90;;
25984;SDS011;66753;53.848;10.658;2023-02-28T22:39:24;7.63;;;3.17;;
25984;SDS011;66753;53.848;10.658;2023-02-28T22:44:25;6.10;;;3.23;;
25984;SDS011;66753;53.848;10.658;2023-02-28T22:49:25;6.97;;;3.10;;
25984;SDS011;66753;53.848;10.658;2023-02-28T22:54:26;8.85;;;3.00;;
25984;SDS011;66753;53.848;10.658;2023-02-28T22:59:26;6.00;;;3.23;;
25984;SDS011;66753;53.848;10.658;2023-02-28T23:04:27;8.20;;;3.43;;
25984;SDS011;66753;53.848;10.658;2023-02-28T23:09:27;6.87;;;3.10;;
25984;SDS011;66753;53.848;10.658;2023-02-28T23:14:27;7.30;;;3.00;;
25984;SDS011;66753;53.848;10.658;2023-02-28T23:19:29;5.70;;;2.77;;
25984;SDS011;66753;53.848;10.658;2023-02-28T23:24:30;5.70;;;2.72;;
25984;SDS011;66753;53.848;10.658;2023-02-28T23:29:33;6.43;;;3.30;;
25984;SDS011;66753;53.848;10.658;2023-02-28T23:34:34;6.95;;;3.13;;
25984;SDS011;66753;53.848;10.658;2023-02-28T23:39:34;6.20;;;3.70;;
25984;SDS011;66753;53.848;10.658;2023-02-28T23:44:35;7.13;;;3.20;;
25984;SDS011;66753;53.848;10.658;2023-02-28T23:49:35;6.53;;;3.20;;
25984;SDS011;66753;53.848;10.658;2023-02-28T23:54:35;4.93;;;3.00;;
25984;SDS011;66753;53.848;10.658;2023-02-28T23:59:36;7.63;;;3.53;;
